Time;durP1;ratioP1;P1;durP2;ratioP2;P2;SDS_P1;SDS_P2;PMS_P1;PMS_P2;Temp;Humidity;BMP_temperature;BMP_pressure;BME280_temperature;BME280_humidity;BME280_pressure;Samples;Min_cycle;Max_cycle;Signal;HPM_P1;HPM_P2
2024/02/28 00:00:10;;;;;;;25.08;11.70;;;;;;;;;;4921573;29;20035;-82
2024/02/28 00:03:16;;;;;;;30.20;11.10;;;;;;;;;;4928013;29;20028;-82
2024/02/28 00:06:23;;;;;;;24.30;11.07;;;;;;;;;;5855814;23;20050;-81
2024/02/28 00:09:38;;;;;;;22.83;11.20;;;;;;;;;;4981539;28;20043;-82
2024/02/28 00:12:25;;;;;;;26.40;11.63;;;;;;;;;;4983435;28;20051;-82
2024/02/28 00:15:19;;;;;;;24.13;11.02;;;;;;;;;;4983169;28;20045;-81
2024/02/28 00:18:19;;;;;;;26.95;10.85;;;;;;;;;;4958525;28;20039;-81
2024/02/28 00:21:31;;;;;;;26.65;11.40;;;;;;;;;;4985875;28;20027;-82
2024/02/28 00:24:43;;;;;;;;;;;;;;;;;;;;;
2024/02/28 00:27:58;;;;;;;32.08;13.13;;;;;;;;;;4998113;28;20122;-81
2024/02/28 00:30:48;;;;;;;28.80;13.13;;;;;;;;;;4980401;28;20093;-81
2024/02/28 00:33:46;;;;;;;25.40;11.50;;;;;;;;;;4994286;28;20038;-81
2024/02/28 00:36:41;;;;;;;21.52;10.60;;;;;;;;;;4965457;29;20042;-81
2024/02/28 00:39:35;;;;;;;23.40;10.52;;;;;;;;;;4962758;29;20043;-81
2024/02/28 00:42:17;;;;;;;26.77;11.00;;;;;;;;;;4960167;29;20044;-82
2024/02/28 00:44:49;;;;;;;23.98;10.95;;;;;;;;;;4934251;29;20051;-82
2024/02/28 00:47:55;;;;;;;25.42;11.70;;;;;;;;;;4967525;29;20035;-82
2024/02/28 00:50:31;;;;;;;24.20;10.50;;;;;;;;;;4957873;29;20027;-81
2024/02/28 00:53:19;;;;;;;24.77;10.90;;;;;;;;;;4943289;29;20092;-81
2024/02/28 00:56:27;;;;;;;26.15;10.75;;;;;;;;;;4958658;29;20106;-81
2024/02/28 01:02:45;;;;;;;20.60;9.27;;;;;;;;;;4937673;29;20059;-81
2024/02/28 01:05:41;;;;;;;20.42;9.40;;;;;;;;;;4922942;29;20044;-81
2024/02/28 01:09:09;;;;;;;21.48;9.68;;;;;;;;;;4921894;29;20165;-81
2024/02/28 01:11:47;;;;;;;20.55;9.23;;;;;;;;;;4892839;29;20051;-81
2024/02/28 01:14:30;;;;;;;19.73;9.07;;;;;;;;;;4938570;29;20037;-82
2024/02/28 01:17:46;;;;;;;18.70;8.73;;;;;;;;;;4919560;29;20032;-81
2024/02/28 01:20:32;;;;;;;17.40;9.35;;;;;;;;;;4917394;29;20043;-82
2024/02/28 01:23:29;;;;;;;18.27;8.82;;;;;;;;;;4932093;29;20042;-82
2024/02/28 01:26:21;;;;;;;19.10;9.75;;;;;;;;;;4918468;29;20044;-81
2024/02/28 01:29:13;;;;;;;21.63;10.15;;;;;;;;;;4917409;29;20044;-81
2024/02/28 01:31:51;;;;;;;20.05;9.13;;;;;;;;;;4915865;29;20114;-81
2024/02/28 01:34:40;;;;;;;18.50;9.50;;;;;;;;;;4919784;29;20092;-81
2024/02/28 01:37:21;;;;;;;21.95;10.48;;;;;;;;;;4919604;29;20040;-81
2024/02/28 01:40:03;;;;;;;20.00;9.43;;;;;;;;;;4932975;29;20040;-81
2024/02/28 01:42:48;;;;;;;;;;;;;;;;;;;;;
2024/02/28 01:45:26;;;;;;;25.77;10.95;;;;;;;;;;4933262;29;20103;-81
2024/02/28 01:48:22;;;;;;;20.60;10.32;;;;;;;;;;4932221;29;20028;-82
2024/02/28 01:51:07;;;;;;;21.70;10.30;;;;;;;;;;4901551;29;20063;-82
2024/02/28 01:53:39;;;;;;;22.67;10.13;;;;;;;;;;4926179;28;20035;-81
2024/02/28 01:56:11;;;;;;;27.77;9.98;;;;;;;;;;4926789;29;20047;-81
2024/02/28 01:59:05;;;;;;;18.35;9.55;;;;;;;;;;4957113;29;20035;-81
2024/02/28 02:01:58;;;;;;;18.90;9.68;;;;;;;;;;4942966;29;20074;-82
2024/02/28 02:04:48;;;;;;;16.80;9.05;;;;;;;;;;4975332;28;20064;-82
2024/02/28 02:07:47;;;;;;;16.42;7.80;;;;;;;;;;4993395;28;20044;-81
2024/02/28 02:10:23;;;;;;;17.23;8.73;;;;;;;;;;4976253;28;20035;-82
2024/02/28 02:13:13;;;;;;;19.63;9.65;;;;;;;;;;4963110;28;20042;-81
2024/02/28 02:16:38;;;;;;;18.98;9.70;;;;;;;;;;4984110;28;20094;-79
2024/02/28 02:19:22;;;;;;;19.33;9.15;;;;;;;;;;4942927;28;20055;-82
2024/02/28 02:22:27;;;;;;;19.92;10.02;;;;;;;;;;4981114;28;20042;-81
2024/02/28 02:25:25;;;;;;;19.88;9.75;;;;;;;;;;4996629;28;20038;-82
2024/02/28 02:29:09;;;;;;;22.38;10.50;;;;;;;;;;4993084;28;20066;-81
2024/02/28 02:32:40;;;;;;;24.67;11.25;;;;;;;;;;4979232;28;20054;-81
2024/02/28 02:36:04;;;;;;;31.05;12.70;;;;;;;;;;4991002;28;20035;-82
2024/02/28 02:39:26;;;;;;;27.05;12.30;;;;;;;;;;4981492;28;20015;-81
2024/02/28 02:42:51;;;;;;;29.30;13.10;;;;;;;;;;4936143;29;20028;-81
2024/02/28 02:46:33;;;;;;;;;;;;;;;;;;;;;
2024/02/28 02:50:03;;;;;;;25.40;12.75;;;;;;;;;;4845408;29;20045;-81
2024/02/28 02:57:13;;;;;;;25.52;12.15;;;;;;;;;;4841150;29;20034;-82
2024/02/28 03:00:29;;;;;;;27.13;12.45;;;;;;;;;;4831571;29;20050;-82
2024/02/28 03:04:06;;;;;;;29.17;12.93;;;;;;;;;;4811398;29;20049;-80
2024/02/28 03:15:03;;;;;;;30.33;12.95;;;;;;;;;;5092055;23;20115;-81
2024/02/28 03:17:57;;;;;;;24.15;12.07;;;;;;;;;;4992653;28;20098;-82
2024/02/28 03:20:46;;;;;;;;;;;;;;;;;;4990725;28;20030;-81
2024/02/28 03:23:51;;;;;;;24.80;11.38;;;;;;;;;;5011712;28;19909;-81
2024/02/28 03:26:50;;;;;;;25.05;12.20;;;;;;;;;;4979175;28;20123;-81
2024/02/28 03:29:57;;;;;;;26.10;12.48;;;;;;;;;;4958249;29;20075;-82
2024/02/28 03:33:35;;;;;;;23.27;12.45;;;;;;;;;;4975040;28;20015;-81
2024/02/28 03:36:24;;;;;;;25.50;12.18;;;;;;;;;;4974487;28;20027;-82
2024/02/28 03:39:29;;;;;;;29.33;12.95;;;;;;;;;;4945629;29;20039;-80
2024/02/28 03:42:24;;;;;;;20.55;11.70;;;;;;;;;;4976946;29;20045;-81
2024/02/28 03:45:13;;;;;;;26.05;13.57;;;;;;;;;;4991559;28;20133;-82
2024/02/28 03:48:52;;;;;;;23.60;12.18;;;;;;;;;;4968449;28;20402;-82
2024/02/28 03:52:13;;;;;;;24.63;12.48;;;;;;;;;;4979775;28;20091;-81
2024/02/28 03:55:05;;;;;;;27.45;13.73;;;;;;;;;;4981048;28;20094;-82
2024/02/28 03:58:08;;;;;;;28.15;14.30;;;;;;;;;;4983383;28;20031;-82
2024/02/28 04:04:51;;;;;;;28.05;14.65;;;;;;;;;;4974975;28;20036;-81
2024/02/28 04:08:42;;;;;;;25.98;12.77;;;;;;;;;;4978661;29;20115;-82
2024/02/28 04:12:12;;;;;;;25.40;11.82;;;;;;;;;;4954676;29;20059;-82
2024/02/28 04:16:17;;;;;;;23.63;11.55;;;;;;;;;;4918718;29;20120;-81
2024/02/28 04:19:30;;;;;;;23.38;11.18;;;;;;;;;;4914915;29;20033;-81
2024/02/28 04:22:22;;;;;;;24.42;11.85;;;;;;;;;;4866107;29;20567;-82
2024/02/28 04:25:30;;;;;;;25.20;13.02;;;;;;;;;;4895403;29;20028;-82
2024/02/28 04:28:36;;;;;;;23.42;11.98;;;;;;;;;;4927391;29;20063;-81
2024/02/28 04:39:56;;;;;;;23.55;11.93;;;;;;;;;;4956599;29;20036;-82
2024/02/28 04:51:49;;;;;;;23.88;12.90;;;;;;;;;;4993953;28;20106;-82
2024/02/28 04:54:56;;;;;;;26.50;13.90;;;;;;;;;;4994415;28;20046;-81
2024/02/28 04:58:04;;;;;;;26.58;13.27;;;;;;;;;;4974780;28;20118;-81
2024/02/28 05:01:17;;;;;;;23.23;12.93;;;;;;;;;;4951063;29;20053;-81
2024/02/28 05:04:16;;;;;;;23.40;12.95;;;;;;;;;;4936804;29;20083;-81
2024/02/28 05:07:27;;;;;;;33.05;15.70;;;;;;;;;;4967101;28;20043;-81
2024/02/28 05:14:26;;;;;;;32.13;13.48;;;;;;;;;;4979740;28;20031;-80
2024/02/28 05:17:44;;;;;;;29.20;16.13;;;;;;;;;;4994982;28;20034;-82
2024/02/28 05:20:57;;;;;;;29.42;14.75;;;;;;;;;;4965467;28;20039;-82
2024/02/28 05:23:59;;;;;;;30.58;14.32;;;;;;;;;;4966926;28;20031;-82
2024/02/28 05:28:07;;;;;;;31.42;15.50;;;;;;;;;;4968513;28;20029;-82
2024/02/28 05:31:03;;;;;;;30.42;14.55;;;;;;;;;;4974961;29;20319;-81
2024/02/28 05:34:25;;;;;;;26.10;14.02;;;;;;;;;;4965297;29;20039;-82
2024/02/28 05:38:08;;;;;;;28.35;13.98;;;;;;;;;;4964684;28;20062;-82
2024/02/28 05:41:58;;;;;;;22.98;12.13;;;;;;;;;;4953771;29;20042;-82
2024/02/28 05:45:56;;;;;;;23.60;12.57;;;;;;;;;;4962823;29;20087;-82
2024/02/28 05:56:30;;;;;;;23.58;11.40;;;;;;;;;;5155313;23;20058;-81
2024/02/28 06:10:28;;;;;;;22.70;10.98;;;;;;;;;;4917667;29;20036;-81
2024/02/28 06:14:22;;;;;;;21.35;10.77;;;;;;;;;;4922698;29;20063;-81
2024/02/28 06:17:52;;;;;;;21.83;11.15;;;;;;;;;;4921188;29;20032;-82
2024/02/28 06:34:15;;;;;;;25.67;11.15;;;;;;;;;;4826409;29;20070;-81
2024/02/28 06:41:58;;;;;;;26.90;12.45;;;;;;;;;;4815447;29;20035;-82
2024/02/28 06:45:37;;;;;;;25.58;11.98;;;;;;;;;;4795318;29;20060;-81
2024/02/28 06:56:03;;;;;;;;;;;;;;;;;;5037560;23;20071;-82
2024/02/28 07:04:01;;;;;;;28.10;13.20;;;;;;;;;;4956418;28;20040;-81
2024/02/28 07:11:30;;;;;;;25.40;12.00;;;;;;;;;;4952541;29;20055;-82
2024/02/28 07:14:07;;;;;;;24.83;12.45;;;;;;;;;;4931666;29;20059;-81
2024/02/28 07:16:38;;;;;;;24.65;13.00;;;;;;;;;;4916539;29;20032;-80
2024/02/28 07:19:31;;;;;;;26.08;12.65;;;;;;;;;;4961822;29;20046;-81
2024/02/28 07:22:27;;;;;;;23.70;12.32;;;;;;;;;;4922302;29;20965;-81
2024/02/28 07:25:06;;;;;;;22.55;12.52;;;;;;;;;;4946016;29;20044;-81
2024/02/28 07:27:49;;;;;;;22.70;12.23;;;;;;;;;;4933032;29;20066;-81
2024/02/28 07:30:28;;;;;;;26.70;13.93;;;;;;;;;;4929891;29;20071;-82
2024/02/28 07:33:06;;;;;;;32.70;16.65;;;;;;;;;;4902000;29;20050;-81
2024/02/28 07:36:11;;;;;;;32.03;16.25;;;;;;;;;;4897983;29;20471;-81
2024/02/28 07:39:06;;;;;;;35.92;17.02;;;;;;;;;;4921108;29;20031;-81
2024/02/28 07:41:48;;;;;;;35.88;18.50;;;;;;;;;;4929712;29;20607;-82
2024/02/28 07:44:24;;;;;;;38.33;18.92;;;;;;;;;;4926095;29;20070;-80
2024/02/28 07:47:00;;;;;;;34.70;18.45;;;;;;;;;;4945218;28;20031;-80
2024/02/28 07:49:46;;;;;;;41.53;20.80;;;;;;;;;;4964306;28;20067;-80
2024/02/28 07:52:42;;;;;;;44.83;21.27;;;;;;;;;;4963065;28;20121;-80
2024/02/28 07:55:11;;;;;;;49.83;22.23;;;;;;;;;;4930515;28;20027;-81
2024/02/28 07:57:52;;;;;;;43.42;21.80;;;;;;;;;;4936794;28;20066;-81
2024/02/28 08:00:25;;;;;;;41.10;21.10;;;;;;;;;;4929362;28;20553;-80
2024/02/28 08:03:10;;;;;;;49.75;22.20;;;;;;;;;;4943090;29;20047;-80
2024/02/28 08:05:44;;;;;;;47.05;21.90;;;;;;;;;;4931630;29;20570;-80
2024/02/28 08:08:27;;;;;;;45.42;21.33;;;;;;;;;;4958021;28;20031;-81
2024/02/28 08:11:15;;;;;;;50.53;22.77;;;;;;;;;;4957997;28;20517;-81
2024/02/28 08:13:59;;;;;;;46.92;22.60;;;;;;;;;;4940180;28;20043;-80
2024/02/28 08:16:31;;;;;;;43.03;21.92;;;;;;;;;;4966655;28;20030;-80
2024/02/28 08:19:22;;;;;;;48.00;21.20;;;;;;;;;;4921178;29;20031;-83
2024/02/28 08:22:20;;;;;;;43.45;19.95;;;;;;;;;;4954885;28;20027;-80
2024/02/28 08:25:14;;;;;;;41.03;20.67;;;;;;;;;;4975207;28;20135;-80
2024/02/28 08:28:11;;;;;;;43.90;21.42;;;;;;;;;;4956606;29;20047;-81
2024/02/28 08:30:58;;;;;;;46.00;20.98;;;;;;;;;;4939291;29;20038;-81
2024/02/28 08:33:55;;;;;;;45.97;21.90;;;;;;;;;;4931460;29;20048;-82
2024/02/28 08:36:52;;;;;;;43.38;19.98;;;;;;;;;;4941611;29;20049;-81
2024/02/28 08:39:38;;;;;;;40.05;18.70;;;;;;;;;;4947050;28;20039;-82
2024/02/28 08:42:37;;;;;;;36.22;19.35;;;;;;;;;;4976050;28;20042;-82
2024/02/28 08:45:17;;;;;;;36.72;20.02;;;;;;;;;;4958988;28;20118;-81
2024/02/28 08:48:16;;;;;;;38.80;18.85;;;;;;;;;;4962490;28;20062;-82
2024/02/28 08:51:32;;;;;;;35.63;18.88;;;;;;;;;;4965139;28;20030;-82
2024/02/28 08:54:14;;;;;;;34.92;18.75;;;;;;;;;;4978282;28;20047;-82
2024/02/28 08:56:54;;;;;;;31.83;17.25;;;;;;;;;;4938968;29;20054;-82
2024/02/28 08:59:29;;;;;;;38.35;19.48;;;;;;;;;;4960638;28;20050;-81
2024/02/28 09:02:19;;;;;;;33.33;18.13;;;;;;;;;;4956854;29;20055;-81
2024/02/28 09:04:52;;;;;;;30.48;17.50;;;;;;;;;;4929624;29;20251;-82
2024/02/28 09:07:25;;;;;;;33.60;17.60;;;;;;;;;;4933498;29;20039;-81
2024/02/28 09:09:53;;;;;;;;;;;;;;;;;;4946823;29;20042;-82
2024/02/28 09:12:55;;;;;;;31.13;17.45;;;;;;;;;;4967784;28;19910;-82
2024/02/28 09:18:55;;;;;;;;;;;;;;;;;;5243759;23;20074;-82
2024/02/28 09:22:10;;;;;;;25.67;14.98;;;;;;;;;;4967325;28;19996;-82
2024/02/28 09:24:45;;;;;;;32.38;16.75;;;;;;;;;;4951802;28;20542;-82
2024/02/28 09:27:39;;;;;;;29.30;17.58;;;;;;;;;;4962164;28;20030;-81
2024/02/28 09:34:01;;;;;;;28.02;16.50;;;;;;;;;;4904677;29;20044;-82
2024/02/28 09:37:22;;;;;;;30.95;17.05;;;;;;;;;;4887413;29;20036;-82
2024/02/28 09:40:02;;;;;;;27.58;16.63;;;;;;;;;;4889851;29;20044;-81
2024/02/28 09:42:43;;;;;;;29.05;16.48;;;;;;;;;;4890593;29;20049;-80
2024/02/28 09:45:22;;;;;;;29.80;16.25;;;;;;;;;;4899440;29;20041;-80
2024/02/28 09:48:13;;;;;;;29.17;16.33;;;;;;;;;;4869397;29;20029;-80
2024/02/28 09:50:49;;;;;;;29.58;16.60;;;;;;;;;;4900629;29;20049;-80
2024/02/28 09:53:24;;;;;;;30.50;18.23;;;;;;;;;;4877592;29;20044;-82
2024/02/28 09:55:58;;;;;;;28.80;16.85;;;;;;;;;;4875363;29;20370;-80
2024/02/28 09:58:27;;;;;;;30.08;17.52;;;;;;;;;;4885634;29;20036;-80
2024/02/28 10:01:09;;;;;;;33.08;17.63;;;;;;;;;;4875671;29;20390;-81
2024/02/28 10:03:54;;;;;;;33.38;17.92;;;;;;;;;;4897467;29;20408;-82
2024/02/28 10:06:29;;;;;;;30.42;17.77;;;;;;;;;;4856299;29;20588;-81
2024/02/28 10:09:01;;;;;;;27.60;17.20;;;;;;;;;;4890617;29;20077;-81
2024/02/28 10:11:29;;;;;;;30.83;18.27;;;;;;;;;;4936961;28;20046;-82
2024/02/28 10:13:59;;;;;;;34.35;18.08;;;;;;;;;;4937976;28;20043;-82
2024/02/28 10:16:36;;;;;;;31.50;17.52;;;;;;;;;;4954848;28;20067;-81
2024/02/28 10:19:08;;;;;;;30.20;17.05;;;;;;;;;;4933530;28;20049;-82
2024/02/28 10:21:49;;;;;;;30.52;16.98;;;;;;;;;;4932061;28;20467;-82
2024/02/28 10:24:38;;;;;;;33.15;17.80;;;;;;;;;;4956021;28;20105;-82
2024/02/28 10:27:12;;;;;;;27.25;16.40;;;;;;;;;;4957835;28;20106;-82
2024/02/28 10:29:47;;;;;;;29.95;16.25;;;;;;;;;;4973974;28;20057;-81
2024/02/28 10:32:48;;;;;;;27.90;15.70;;;;;;;;;;4958806;28;20050;-82
2024/02/28 10:35:28;;;;;;;28.20;15.75;;;;;;;;;;4957689;28;20054;-81
2024/02/28 10:38:32;;;;;;;;;;;;;;;;;;;;;
2024/02/28 10:41:49;;;;;;;30.63;15.80;;;;;;;;;;4961091;28;20027;-82
2024/02/28 10:48:22;;;;;;;25.38;15.20;;;;;;;;;;4994696;28;20027;-82
2024/02/28 10:52:11;;;;;;;24.92;14.55;;;;;;;;;;4993131;28;20031;-82
2024/02/28 10:55:50;;;;;;;24.30;14.20;;;;;;;;;;4942162;29;20088;-83
2024/02/28 10:59:32;;;;;;;25.15;13.85;;;;;;;;;;4848987;29;20066;-82
2024/02/28 11:03:18;;;;;;;20.48;12.60;;;;;;;;;;4861145;29;20043;-81
2024/02/28 11:15:06;;;;;;;25.15;14.55;;;;;;;;;;5504693;23;20051;-82
2024/02/28 11:17:37;;;;;;;22.60;13.73;;;;;;;;;;4952114;28;20035;-81
2024/02/28 11:20:22;;;;;;;22.90;13.93;;;;;;;;;;4951926;28;20067;-82
2024/02/28 11:23:08;;;;;;;22.85;12.85;;;;;;;;;;4955005;28;20525;-82
2024/02/28 11:25:44;;;;;;;23.10;13.48;;;;;;;;;;4952935;28;20054;-81
2024/02/28 11:28:26;;;;;;;22.20;12.40;;;;;;;;;;4964517;28;20522;-83
2024/02/28 11:31:02;;;;;;;25.63;12.88;;;;;;;;;;4934753;28;20034;-82
2024/02/28 11:34:07;;;;;;;19.95;11.35;;;;;;;;;;4984371;28;20074;-83
2024/02/28 11:37:00;;;;;;;;;;;;;;;;;;;;;
2024/02/28 11:39:39;;;;;;;21.00;11.30;;;;;;;;;;4980647;28;20042;-80
2024/02/28 11:42:19;;;;;;;20.75;11.77;;;;;;;;;;4949690;28;20038;-81
2024/02/28 11:44:57;;;;;;;18.55;11.25;;;;;;;;;;4932899;28;20042;-80
2024/02/28 11:47:34;;;;;;;25.20;11.75;;;;;;;;;;4948183;28;20046;-81
2024/02/28 11:50:04;;;;;;;25.27;11.35;;;;;;;;;;4947248;28;20034;-81
2024/02/28 11:52:45;;;;;;;23.92;12.15;;;;;;;;;;4947327;28;20161;-80
2024/02/28 11:55:16;;;;;;;24.55;12.15;;;;;;;;;;4965673;28;20042;-81
2024/02/28 11:57:49;;;;;;;21.30;12.50;;;;;;;;;;4931218;29;20151;-81
2024/02/28 12:00:20;;;;;;;22.02;11.75;;;;;;;;;;4944799;29;20034;-82
2024/02/28 12:03:04;;;;;;;19.95;11.00;;;;;;;;;;4933284;29;20034;-82
2024/02/28 12:05:53;;;;;;;18.75;11.25;;;;;;;;;;4952678;29;20066;-81
2024/02/28 12:08:20;;;;;;;21.27;11.30;;;;;;;;;;4917174;29;20031;-82
2024/02/28 12:10:48;;;;;;;20.20;11.00;;;;;;;;;;4933700;29;20042;-80
2024/02/28 12:13:22;;;;;;;18.48;10.50;;;;;;;;;;4932143;29;20036;-81
2024/02/28 12:15:55;;;;;;;19.10;10.82;;;;;;;;;;4940161;29;20367;-81
2024/02/28 12:18:34;;;;;;;18.02;10.38;;;;;;;;;;4916092;29;20494;-82
2024/02/28 12:21:10;;;;;;;19.63;9.85;;;;;;;;;;4930948;29;20105;-83
2024/02/28 12:23:39;;;;;;;18.75;10.13;;;;;;;;;;4916572;28;20224;-81
2024/02/28 12:26:12;;;;;;;18.33;10.00;;;;;;;;;;4915939;29;20027;-81
2024/02/28 12:28:49;;;;;;;15.88;9.75;;;;;;;;;;4925226;29;20038;-82
2024/02/28 12:31:21;;;;;;;15.18;9.77;;;;;;;;;;4946411;29;20027;-81
2024/02/28 12:33:49;;;;;;;16.85;10.27;;;;;;;;;;4946878;29;20059;-82
2024/02/28 12:36:19;;;;;;;15.85;10.00;;;;;;;;;;4931898;29;20087;-81
2024/02/28 12:38:50;;;;;;;16.52;9.95;;;;;;;;;;4932915;29;20035;-81
2024/02/28 12:41:18;;;;;;;16.15;9.82;;;;;;;;;;4930752;29;20122;-81
2024/02/28 12:43:48;;;;;;;14.73;9.00;;;;;;;;;;4915170;29;20039;-82
2024/02/28 12:46:15;;;;;;;15.45;9.32;;;;;;;;;;4931634;29;20023;-81
2024/02/28 12:48:49;;;;;;;16.05;10.07;;;;;;;;;;4931941;29;20027;-82
2024/02/28 12:51:48;;;;;;;15.13;10.02;;;;;;;;;;4948979;29;20110;-81
2024/02/28 12:54:41;;;;;;;14.93;9.73;;;;;;;;;;4948012;29;20043;-82
2024/02/28 12:57:16;;;;;;;15.95;9.18;;;;;;;;;;4963673;29;20042;-82
2024/02/28 12:59:45;;;;;;;14.32;9.05;;;;;;;;;;4925293;29;20035;-81
2024/02/28 13:02:23;;;;;;;17.10;9.60;;;;;;;;;;4948850;29;20034;-81
2024/02/28 13:05:03;;;;;;;14.10;8.98;;;;;;;;;;4964492;28;20110;-80
2024/02/28 13:07:37;;;;;;;22.50;11.00;;;;;;;;;;4964426;29;20027;-82
2024/02/28 13:10:14;;;;;;;;;;;;;;;;;;4932492;29;20114;-82
2024/02/28 13:12:49;;;;;;;15.93;9.65;;;;;;;;;;4964927;29;19933;-82
2024/02/28 13:15:26;;;;;;;27.70;10.20;;;;;;;;;;4913908;29;20038;-82
2024/02/28 13:17:58;;;;;;;18.00;9.40;;;;;;;;;;4930714;29;20159;-81
2024/02/28 13:20:40;;;;;;;16.75;8.70;;;;;;;;;;4962822;29;20050;-81
2024/02/28 13:23:15;;;;;;;15.45;8.50;;;;;;;;;;4914282;29;20039;-81
2024/02/28 13:25:53;;;;;;;16.85;9.18;;;;;;;;;;4931432;29;20039;-82
2024/02/28 13:28:32;;;;;;;15.60;9.18;;;;;;;;;;4948663;29;20035;-80
2024/02/28 13:31:19;;;;;;;15.30;8.80;;;;;;;;;;4931367;29;20034;-81
2024/02/28 13:33:50;;;;;;;14.48;9.02;;;;;;;;;;4917725;29;20143;-81
2024/02/28 13:36:43;;;;;;;14.95;8.40;;;;;;;;;;4931577;29;20555;-82
2024/02/28 13:39:18;;;;;;;13.45;7.78;;;;;;;;;;4950141;29;20031;-82
2024/02/28 13:41:53;;;;;;;14.35;7.95;;;;;;;;;;4919022;29;20039;-81
2024/02/28 13:44:28;;;;;;;14.50;7.07;;;;;;;;;;4951248;29;20035;-81
2024/02/28 13:46:56;;;;;;;13.48;8.23;;;;;;;;;;4918610;29;20023;-81
2024/02/28 13:49:31;;;;;;;17.75;8.82;;;;;;;;;;4917368;29;20031;-81
2024/02/28 13:52:09;;;;;;;13.70;8.27;;;;;;;;;;4964620;29;20060;-80
2024/02/28 13:55:04;;;;;;;13.40;8.32;;;;;;;;;;4949184;29;20043;-82
2024/02/28 13:57:45;;;;;;;14.63;8.18;;;;;;;;;;4950161;29;20035;-81
2024/02/28 14:00:38;;;;;;;12.20;7.50;;;;;;;;;;4928840;29;20047;-81
2024/02/28 14:03:20;;;;;;;15.60;6.65;;;;;;;;;;4968789;29;20062;-81
2024/02/28 14:06:10;;;;;;;12.73;6.95;;;;;;;;;;4950320;29;20039;-82
2024/02/28 14:09:10;;;;;;;12.38;7.13;;;;;;;;;;4918755;29;20041;-82
2024/02/28 14:11:49;;;;;;;14.25;6.95;;;;;;;;;;4936038;29;20024;-81
2024/02/28 14:14:18;;;;;;;11.32;7.15;;;;;;;;;;4916200;29;20054;-82
2024/02/28 14:16:52;;;;;;;11.50;6.22;;;;;;;;;;4933537;29;20050;-82
2024/02/28 14:20:11;;;;;;;14.18;7.15;;;;;;;;;;4970210;28;20023;-83
2024/02/28 14:23:20;;;;;;;11.40;6.60;;;;;;;;;;4971124;29;20094;-82
2024/02/28 14:26:12;;;;;;;10.82;6.32;;;;;;;;;;4955973;29;20038;-82
2024/02/28 14:29:17;;;;;;;11.38;7.00;;;;;;;;;;4906679;29;20047;-81
2024/02/28 14:32:07;;;;;;;13.05;7.13;;;;;;;;;;4948873;29;20071;-83
2024/02/28 14:35:33;;;;;;;11.80;7.18;;;;;;;;;;4955555;29;20051;-83
2024/02/28 14:38:09;;;;;;;12.80;8.00;;;;;;;;;;4903967;29;20035;-81
2024/02/28 14:41:18;;;;;;;12.43;7.50;;;;;;;;;;4948058;29;20463;-80
2024/02/28 14:43:54;;;;;;;;;;;;;;;;;;4919577;29;20035;-81
2024/02/28 14:47:11;;;;;;;11.80;7.32;;;;;;;;;;4950098;29;19911;-82
2024/02/28 14:50:15;;;;;;;13.55;7.18;;;;;;;;;;4952905;29;20046;-85
2024/02/28 14:53:19;;;;;;;;;;;;;;;;;;;;;
2024/02/28 14:56:23;;;;;;;13.55;8.02;;;;;;;;;;4968462;29;20063;-81
2024/02/28 15:02:33;;;;;;;12.45;7.25;;;;;;;;;;4855070;29;20106;-84
2024/02/28 15:05:42;;;;;;;15.30;8.23;;;;;;;;;;4870815;29;20046;-84
2024/02/28 15:09:17;;;;;;;;;;;;;;;;;;;;;
2024/02/28 15:11:58;;;;;;;12.07;7.90;;;;;;;;;;4847330;29;20067;-84
2024/02/28 15:14:35;;;;;;;13.40;7.25;;;;;;;;;;4853665;29;20391;-84
2024/02/28 15:17:16;;;;;;;12.23;7.68;;;;;;;;;;4839491;29;20041;-85
2024/02/28 15:19:50;;;;;;;17.40;8.02;;;;;;;;;;4838857;29;20058;-82
2024/02/28 15:23:10;;;;;;;12.50;8.23;;;;;;;;;;4814293;29;20436;-82
2024/02/28 15:26:39;;;;;;;13.63;8.05;;;;;;;;;;4907735;29;20056;-82
2024/02/28 15:29:43;;;;;;;17.73;7.97;;;;;;;;;;4895694;29;20108;-82
2024/02/28 15:32:59;;;;;;;12.55;7.45;;;;;;;;;;4911628;29;20047;-82
2024/02/28 15:36:16;;;;;;;12.13;7.15;;;;;;;;;;4930060;29;20036;-82
2024/02/28 15:39:46;;;;;;;;;;;;;;;;;;;;;
2024/02/28 15:42:44;;;;;;;13.95;7.30;;;;;;;;;;4925625;29;20047;-82
2024/02/28 15:45:41;;;;;;;14.90;7.20;;;;;;;;;;4937862;29;20056;-82
2024/02/28 15:48:29;;;;;;;18.38;8.20;;;;;;;;;;4932025;29;20090;-82
2024/02/28 15:51:21;;;;;;;18.45;8.00;;;;;;;;;;4893467;29;20037;-81
2024/02/28 15:54:09;;;;;;;14.98;8.15;;;;;;;;;;4888712;29;20037;-82
2024/02/28 15:56:59;;;;;;;17.23;8.77;;;;;;;;;;4863803;29;20053;-81
2024/02/28 15:59:46;;;;;;;17.40;8.88;;;;;;;;;;4871508;29;20508;-82
2024/02/28 16:02:39;;;;;;;15.30;8.05;;;;;;;;;;4874997;29;20477;-82
2024/02/28 16:05:26;;;;;;;14.82;8.77;;;;;;;;;;4874526;29;20048;-82
2024/02/28 16:08:04;;;;;;;15.38;8.70;;;;;;;;;;4870231;29;20037;-82
2024/02/28 16:10:58;;;;;;;16.48;8.55;;;;;;;;;;4891424;29;20068;-83
2024/02/28 16:13:53;;;;;;;19.35;9.13;;;;;;;;;;4894088;29;20054;-82
2024/02/28 16:19:34;;;;;;;18.63;9.20;;;;;;;;;;4886401;29;20083;-81
2024/02/28 16:22:23;;;;;;;16.42;8.15;;;;;;;;;;4880077;29;20123;-81
2024/02/28 16:25:04;;;;;;;15.95;8.63;;;;;;;;;;4896160;29;20099;-81
2024/02/28 16:27:36;;;;;;;14.40;8.40;;;;;;;;;;4888997;29;20084;-83
2024/02/28 16:30:12;;;;;;;19.50;10.02;;;;;;;;;;4901784;29;20413;-82
2024/02/28 16:32:44;;;;;;;14.93;8.25;;;;;;;;;;4906260;29;20048;-81
2024/02/28 16:35:21;;;;;;;23.48;11.10;;;;;;;;;;4892144;29;20048;-82
2024/02/28 16:38:24;;;;;;;18.80;10.00;;;;;;;;;;4895238;29;20061;-81
2024/02/28 16:41:03;;;;;;;19.35;9.63;;;;;;;;;;4922509;29;20052;-82
2024/02/28 16:43:30;;;;;;;16.80;8.35;;;;;;;;;;4916721;29;20043;-82
2024/02/28 16:46:15;;;;;;;19.00;9.27;;;;;;;;;;4935250;29;20039;-81
2024/02/28 16:48:48;;;;;;;15.95;8.25;;;;;;;;;;4934321;29;20028;-82
2024/02/28 16:51:22;;;;;;;21.10;9.60;;;;;;;;;;4934762;29;20060;-82
2024/02/28 16:53:54;;;;;;;18.73;9.20;;;;;;;;;;4918304;29;20091;-82
2024/02/28 16:56:26;;;;;;;16.48;8.82;;;;;;;;;;4918938;29;20043;-83
2024/02/28 16:59:09;;;;;;;16.45;8.35;;;;;;;;;;4935524;29;20067;-81
2024/02/28 17:01:46;;;;;;;19.48;10.18;;;;;;;;;;4921479;29;20035;-83
2024/02/28 17:04:22;;;;;;;24.38;12.32;;;;;;;;;;4934047;29;20031;-82
2024/02/28 17:06:52;;;;;;;18.90;9.35;;;;;;;;;;4931522;29;20035;-83
2024/02/28 17:09:28;;;;;;;16.98;9.55;;;;;;;;;;4918945;29;20099;-82
2024/02/28 17:12:09;;;;;;;19.50;9.65;;;;;;;;;;4946719;29;20036;-82
2024/02/28 17:14:42;;;;;;;17.75;9.02;;;;;;;;;;4951253;29;20023;-83
2024/02/28 17:17:25;;;;;;;17.52;9.13;;;;;;;;;;4948614;29;20043;-82
2024/02/28 17:20:07;;;;;;;15.50;8.50;;;;;;;;;;4933603;29;20091;-82
2024/02/28 17:22:50;;;;;;;20.17;9.80;;;;;;;;;;4944983;29;20043;-82
2024/02/28 17:25:41;;;;;;;18.30;9.80;;;;;;;;;;4925950;29;20042;-82
2024/02/28 17:28:13;;;;;;;25.15;11.57;;;;;;;;;;4897466;29;20039;-81
2024/02/28 17:30:43;;;;;;;25.25;11.30;;;;;;;;;;4911670;29;20032;-83
2024/02/28 17:33:14;;;;;;;21.23;9.82;;;;;;;;;;4911920;29;20041;-83
2024/02/28 17:35:41;;;;;;;20.27;10.18;;;;;;;;;;4928005;29;20051;-83
2024/02/28 17:38:17;;;;;;;22.63;9.82;;;;;;;;;;4928915;29;20043;-83
2024/02/28 17:40:55;;;;;;;22.17;10.20;;;;;;;;;;4883146;29;20028;-83
2024/02/28 17:43:22;;;;;;;25.85;10.02;;;;;;;;;;4881005;29;20044;-83
2024/02/28 17:46:12;;;;;;;18.73;9.13;;;;;;;;;;4898507;29;20048;-83
2024/02/28 17:48:52;;;;;;;28.90;12.27;;;;;;;;;;4898801;29;20113;-83
2024/02/28 17:51:49;;;;;;;26.23;11.73;;;;;;;;;;4916070;29;20099;-83
2024/02/28 17:54:29;;;;;;;20.10;10.90;;;;;;;;;;4923966;29;20046;-83
2024/02/28 17:57:04;;;;;;;16.90;9.30;;;;;;;;;;4935752;29;20039;-82
2024/02/28 17:59:47;;;;;;;23.90;10.45;;;;;;;;;;4921421;29;20032;-82
2024/02/28 18:02:16;;;;;;;18.33;10.05;;;;;;;;;;4903185;29;20051;-83
2024/02/28 18:04:44;;;;;;;26.70;11.27;;;;;;;;;;4920337;29;20055;-83
2024/02/28 18:07:13;;;;;;;29.15;12.55;;;;;;;;;;4921885;29;20058;-83
2024/02/28 18:09:41;;;;;;;26.63;10.40;;;;;;;;;;4918871;29;20039;-82
2024/02/28 18:12:20;;;;;;;26.02;12.27;;;;;;;;;;4950209;29;20051;-82
2024/02/28 18:15:10;;;;;;;24.75;11.52;;;;;;;;;;4949306;29;20031;-82
2024/02/28 18:18:01;;;;;;;26.20;11.23;;;;;;;;;;4946655;29;20080;-83
2024/02/28 18:20:48;;;;;;;26.08;11.77;;;;;;;;;;4934645;29;20091;-83
2024/02/28 18:23:16;;;;;;;28.38;11.57;;;;;;;;;;4934260;29;20038;-82
2024/02/28 18:25:48;;;;;;;30.08;11.88;;;;;;;;;;4932995;29;20071;-82
2024/02/28 18:28:27;;;;;;;27.30;12.23;;;;;;;;;;4919885;29;20039;-83
2024/02/28 18:31:10;;;;;;;22.92;12.35;;;;;;;;;;4937367;29;20110;-83
2024/02/28 18:33:43;;;;;;;26.83;13.35;;;;;;;;;;4906251;29;20107;-83
2024/02/28 18:36:19;;;;;;;27.90;13.38;;;;;;;;;;4952952;29;20179;-82
2024/02/28 18:38:54;;;;;;;31.48;15.77;;;;;;;;;;4951893;29;20032;-82
2024/02/28 18:41:47;;;;;;;34.80;15.75;;;;;;;;;;4951047;29;20063;-82
2024/02/28 18:44:36;;;;;;;32.80;16.48;;;;;;;;;;4934755;29;20039;-81
2024/02/28 18:47:27;;;;;;;32.30;16.10;;;;;;;;;;4949559;29;20028;-81
2024/02/28 18:50:13;;;;;;;36.10;16.50;;;;;;;;;;4919202;29;20059;-82